createdAt,value
2019-06-10T00:01:21.168Z,96041.75
2019-06-10T00:03:51.917Z,96042.85
2019-06-10T00:06:22.974Z,96036.89
2019-06-10T00:08:56.037Z,96034.02
2019-06-10T00:11:26.675Z,96024.77
2019-06-10T00:13:58.547Z,96022.41
2019-06-10T00:16:30.854Z,96021.47
2019-06-10T00:19:23.946Z,96026.03
2019-06-10T00:21:54.383Z,96022.77
2019-06-10T00:24:26.356Z,96017.36
2019-06-10T00:26:57.777Z,96015.16
2019-06-10T00:29:28.368Z,96015.08
2019-06-10T00:32:03.248Z,96016.38
2019-06-10T00:34:35.015Z,96011.47
2019-06-10T00:37:06.304Z,96009.31
2019-06-10T00:39:36.709Z,96008.16
2019-06-10T00:42:09.605Z,96010.37
2019-06-10T00:44:41.508Z,96006.16
2019-06-10T00:47:14.705Z,96004.76
2019-06-10T00:49:43.791Z,96012.53
2019-06-10T00:52:14.253Z,96003.28
2019-06-10T00:54:44.663Z,96000.37
2019-06-10T00:57:18.062Z,96003.91
2019-06-10T00:59:50.815Z,95997.48
2019-06-10T01:02:22.093Z,95993.71
2019-06-10T01:04:53.627Z,95988.77
2019-06-10T01:07:27.095Z,95975.25
2019-06-10T01:09:57.620Z,95968.87
2019-06-10T01:12:28.312Z,95965.45
2019-06-10T01:15:00.762Z,95962.51
2019-06-10T01:17:31.245Z,95967.13
2019-06-10T01:20:01.784Z,95974.33
2019-06-10T01:22:32.269Z,95967.86
2019-06-10T01:25:07.233Z,95968.59
2019-06-10T01:27:37.821Z,95955.99
2019-06-10T01:30:12.452Z,95952.66
2019-06-10T01:32:41.627Z,95953.77
2019-06-10T01:35:14.197Z,95954.13
2019-06-10T01:37:44.372Z,95947.83
2019-06-10T01:40:17.998Z,95940.75
2019-06-10T01:42:47.323Z,95937.80
2019-06-10T01:45:17.793Z,95940.50
2019-06-10T01:47:48.270Z,95935.39
2019-06-10T01:50:19.644Z,95935.88
2019-06-10T01:52:51.552Z,95925.91
2019-06-10T01:55:22.108Z,95923.61
2019-06-10T01:57:54.034Z,95916.27
2019-06-10T02:00:31.919Z,95911.33
2019-06-10T02:03:03.693Z,95910.05
2019-06-10T02:05:34.817Z,95901.73
2019-06-10T02:08:06.100Z,95892.48
2019-06-10T02:10:41.518Z,95888.42
2019-06-10T02:13:32.658Z,95883.55
2019-06-10T02:16:02.366Z,95884.42
2019-06-10T02:18:33.003Z,95883.73
2019-06-10T02:21:03.431Z,95881.27
2019-06-10T02:23:44.308Z,95877.09
2019-06-10T02:26:20.009Z,95876.79
2019-06-10T02:29:22.232Z,95884.68
2019-06-10T02:32:14.514Z,95883.02
2019-06-10T02:35:02.010Z,95885.34
2019-06-10T02:37:54.909Z,95887.94
2019-06-10T02:40:31.786Z,95878.45
2019-06-10T02:43:05.886Z,95869.52
2019-06-10T02:45:37.670Z,95865.62
2019-06-10T02:48:08.547Z,95865.70
2019-06-10T02:50:56.943Z,95857.64
2019-06-10T02:53:31.198Z,95866.27
2019-06-10T02:55:59.591Z,95866.50
2019-06-10T02:58:37.254Z,95865.70
2019-06-10T03:01:04.307Z,95862.67
2019-06-10T03:03:42.570Z,95861.32
2019-06-10T03:06:08.884Z,95859.23
2019-06-10T03:08:38.623Z,95855.59
2019-06-10T03:11:09.052Z,95866.98
2019-06-10T03:13:39.502Z,95871.48
2019-06-10T03:16:25.846Z,95865.84
2019-06-10T03:18:56.364Z,95862.73
2019-06-10T03:21:28.526Z,95866.96
2019-06-10T03:24:02.487Z,95869.26
2019-06-10T03:26:32.469Z,95874.67
2019-06-10T03:29:02.979Z,95866.37
2019-06-10T03:31:41.132Z,95878.88
2019-06-10T03:34:05.655Z,95883.28
2019-06-10T03:36:37.511Z,95882.72
2019-06-10T03:39:08.956Z,95876.41
2019-06-10T03:41:39.450Z,95878.11
2019-06-10T03:44:09.879Z,95885.56
2019-06-10T03:46:42.891Z,95893.92
2019-06-10T03:49:12.879Z,95896.61
2019-06-10T03:51:44.884Z,95894.13
2019-06-10T03:54:15.316Z,95890.60
2019-06-10T03:56:52.106Z,95889.62
2019-06-10T03:59:24.645Z,95883.88
2019-06-10T04:01:57.272Z,95878.83
2019-06-10T04:04:29.359Z,95873.08
2019-06-10T04:07:03.836Z,95873.14
2019-06-10T04:09:34.511Z,95868.31
2019-06-10T04:12:06.425Z,95860.16
2019-06-10T04:14:37.120Z,95855.45
2019-06-10T04:17:08.058Z,95863.63
2019-06-10T04:19:38.439Z,95860.92
2019-06-10T04:22:08.919Z,95852.56
2019-06-10T04:24:39.579Z,95851.15
2019-06-10T04:27:12.148Z,95848.94
2019-06-10T04:29:43.227Z,95850.44
2019-06-10T04:32:14.124Z,95852.97
2019-06-10T04:34:44.571Z,95854.63
2019-06-10T04:37:15.188Z,95850.73
2019-06-10T04:39:45.646Z,95843.55
2019-06-10T04:42:16.093Z,95842.95
2019-06-10T04:44:46.959Z,95835.87
2019-06-10T04:47:18.533Z,95830.44
2019-06-10T04:49:52.235Z,95831.50
2019-06-10T04:52:23.612Z,95834.12
2019-06-10T04:54:56.312Z,95833.28
2019-06-10T04:57:28.047Z,95840.52
2019-06-10T04:59:58.884Z,95837.55
2019-06-10T05:02:30.101Z,95836.48
2019-06-10T05:05:02.934Z,95838.36
2019-06-10T05:07:36.832Z,95849.74
2019-06-10T05:10:08.625Z,95854.91
2019-06-10T05:12:44.964Z,95850.41
2019-06-10T05:15:15.357Z,95854.56
2019-06-10T05:17:45.996Z,95854.62
2019-06-10T05:20:17.435Z,95846.16
2019-06-10T05:22:52.805Z,95844.99
2019-06-10T05:25:25.337Z,95843.31
2019-06-10T05:27:55.431Z,95843.95
2019-06-10T05:30:29.573Z,95840.67
2019-06-10T05:33:02.960Z,95832.41
2019-06-10T05:35:34.030Z,95833.91
2019-06-10T05:38:04.558Z,95838.55
2019-06-10T05:40:38.336Z,95827.85
2019-06-10T05:43:08.815Z,95837.28
2019-06-10T05:45:39.210Z,95847.08
2019-06-10T05:48:09.662Z,95846.83
2019-06-10T05:50:40.045Z,95853.25
2019-06-10T05:53:13.137Z,95847.02
2019-06-10T05:55:43.218Z,95844.56
2019-06-10T05:58:13.869Z,95848.86
2019-06-10T06:00:45.665Z,95855.29
2019-06-10T06:03:16.119Z,95863.50
2019-06-10T06:05:46.562Z,95869.34
2019-06-10T06:08:16.953Z,95862.30
2019-06-10T06:10:47.404Z,95861.48
2019-06-10T06:13:23.095Z,95859.05
2019-06-10T06:15:56.050Z,95862.48
2019-06-10T06:18:26.436Z,95858.88
2019-06-10T06:20:56.914Z,95852.73
2019-06-10T06:23:28.596Z,95852.80
2019-06-10T06:26:03.628Z,95850.00
2019-06-10T06:28:35.981Z,95848.14
2019-06-10T06:31:05.996Z,95851.89
2019-06-10T06:33:38.570Z,95850.89
2019-06-10T06:36:08.620Z,95855.67
2019-06-10T06:38:43.826Z,95853.77
2019-06-10T06:41:14.442Z,95850.41
2019-06-10T06:43:45.443Z,95850.41
2019-06-10T06:46:16.130Z,95845.89
2019-06-10T06:48:46.543Z,95841.11
2019-06-10T06:51:16.987Z,95847.92
2019-06-10T06:53:51.938Z,95842.79
2019-06-10T06:56:20.036Z,95851.48
2019-06-10T06:58:52.454Z,95851.55
2019-06-10T07:01:25.815Z,95846.34
2019-06-10T07:04:02.670Z,95856.27
2019-06-10T07:06:32.908Z,95852.52
2019-06-10T07:09:08.407Z,95851.28
2019-06-10T07:11:40.238Z,95850.72
2019-06-10T07:14:13.356Z,95833.80
2019-06-10T07:16:46.063Z,95836.32
2019-06-10T07:19:15.887Z,95827.22
2019-06-10T07:22:08.859Z,95815.20
2019-06-10T07:24:40.662Z,95808.16
2019-06-10T07:27:15.367Z,95809.52
2019-06-10T07:29:52.979Z,95802.46
2019-06-10T07:32:52.816Z,95795.19
2019-06-10T07:35:25.250Z,95788.53
2019-06-10T07:37:57.195Z,95787.85
2019-06-10T07:40:32.977Z,95784.73
2019-06-10T07:43:07.548Z,95782.11
2019-06-10T07:46:03.354Z,95784.89
2019-06-10T07:48:48.644Z,95778.27
2019-06-10T07:51:28.566Z,95780.04
2019-06-10T07:54:03.916Z,95783.08
2019-06-10T07:56:43.076Z,95780.55
2019-06-10T07:59:13.169Z,95772.95
2019-06-10T08:01:51.490Z,95775.34
2019-06-10T08:04:38.126Z,95773.98
2019-06-10T08:07:13.730Z,95772.54
2019-06-10T08:09:53.291Z,95768.00
2019-06-10T08:12:33.632Z,95766.55
2019-06-10T08:15:12.486Z,95785.34
2019-06-10T08:17:46.141Z,95796.88
2019-06-10T08:20:48.857Z,95800.15
2019-06-10T08:23:19.417Z,95797.80
2019-06-10T08:25:57.357Z,95798.31
2019-06-10T08:28:27.325Z,95808.55
2019-06-10T08:31:03.380Z,95811.63
2019-06-10T08:33:42.548Z,95818.18
2019-06-10T08:36:13.656Z,95827.41
2019-06-10T08:38:48.803Z,95820.12
2019-06-10T08:41:28.829Z,95822.59
2019-06-10T08:44:03.670Z,95825.02
2019-06-10T08:46:44.964Z,95824.09
2019-06-10T08:49:23.929Z,95822.23
2019-06-10T08:51:50.078Z,95821.59
2019-06-10T08:54:45.259Z,95823.52
2019-06-10T08:57:17.731Z,95827.18
2019-06-10T08:59:59.717Z,95823.25
2019-06-10T09:02:53.916Z,95826.73
2019-06-10T09:05:40.453Z,95828.34
2019-06-10T09:08:16.888Z,95826.03
2019-06-10T09:11:02.370Z,95821.86
2019-06-10T09:13:43.780Z,95833.14
2019-06-10T09:16:16.628Z,95835.30
2019-06-10T09:18:55.014Z,95842.95
2019-06-10T09:21:33.070Z,95846.80
2019-06-10T09:24:40.869Z,95840.36
2019-06-10T09:27:16.361Z,95848.24
2019-06-10T09:30:04.921Z,95849.93
2019-06-10T09:32:42.676Z,95855.66
2019-06-10T09:35:18.309Z,95849.53
2019-06-10T09:37:55.750Z,95848.48
2019-06-10T09:40:59.930Z,95854.50
2019-06-10T09:43:29.149Z,95848.33
2019-06-10T09:46:03.764Z,95848.30
2019-06-10T09:48:40.958Z,95841.75
2019-06-10T09:51:45.858Z,95840.60
2019-06-10T09:54:15.342Z,95843.30
2019-06-10T09:56:50.020Z,95834.66
2019-06-10T09:59:39.094Z,95843.84
2019-06-10T10:02:18.578Z,95845.02
2019-06-10T10:05:02.948Z,95848.55
2019-06-10T10:07:46.318Z,95849.79
2019-06-10T10:10:18.058Z,95847.69
2019-06-10T10:13:07.970Z,95851.23
2019-06-10T10:15:53.848Z,95846.90
2019-06-10T10:18:32.920Z,95832.64
2019-06-10T10:21:07.757Z,95832.34
2019-06-10T10:23:59.829Z,95832.42
2019-06-10T10:26:27.156Z,95825.66
2019-06-10T10:29:12.861Z,95826.23
2019-06-10T10:31:48.984Z,95822.63
2019-06-10T10:38:34.557Z,95816.84
2019-06-10T10:41:13.269Z,95807.63
2019-06-10T10:50:58.155Z,95776.36
2019-06-10T10:53:50.563Z,95770.75
2019-06-10T10:56:22.311Z,95758.64
2019-06-10T10:58:57.703Z,95755.27
2019-06-10T11:01:28.943Z,95757.17
2019-06-10T11:04:24.043Z,95766.43
2019-06-10T11:07:16.478Z,95772.50
2019-06-10T11:09:59.627Z,95773.99
2019-06-10T11:23:34.562Z,95782.15
2019-06-10T11:26:19.462Z,95777.23
2019-06-10T11:29:10.794Z,95771.27
2019-06-10T11:31:48.484Z,95767.13
2019-06-10T11:35:21.739Z,95761.23
2019-06-10T11:38:06.951Z,95744.70
2019-06-10T11:40:47.153Z,95735.83
2019-06-10T11:43:34.547Z,95738.42
2019-06-10T11:46:13.120Z,95732.14
2019-06-10T11:48:55.604Z,95718.85
2019-06-10T11:51:47.191Z,95717.95
2019-06-10T11:54:24.136Z,95706.81
2019-06-10T11:57:14.528Z,95707.22
2019-06-10T11:59:53.247Z,95709.09
2019-06-10T12:02:29.077Z,95701.00
2019-06-10T12:08:23.631Z,95695.63
2019-06-10T12:11:12.841Z,95692.69
2019-06-10T12:13:45.117Z,95683.92
2019-06-10T12:19:28.993Z,95674.14
2019-06-10T12:26:11.214Z,95670.25
2019-06-10T12:28:45.151Z,95653.20
2019-06-10T12:31:24.115Z,95651.13
2019-06-10T12:37:56.599Z,95647.11
2019-06-10T12:40:29.560Z,95643.98
2019-06-10T12:43:06.785Z,95647.45
2019-06-10T12:45:47.530Z,95652.84
2019-06-10T12:48:34.597Z,95633.70
2019-06-10T12:51:13.539Z,95635.93
2019-06-10T13:04:22.534Z,95633.20
2019-06-10T13:07:13.250Z,95625.13
2019-06-10T13:10:07.968Z,95625.84
2019-06-10T13:12:53.002Z,95624.31
2019-06-10T13:31:14.369Z,95605.00
2019-06-10T13:36:54.103Z,95588.28
2019-06-10T13:39:35.444Z,95583.22
2019-06-10T13:42:19.206Z,95581.72
2019-06-10T13:44:53.435Z,95578.69
2019-06-10T13:47:29.440Z,95579.68
2019-06-10T13:50:44.841Z,95577.39
2019-06-10T13:53:19.231Z,95571.69
2019-06-10T13:56:24.658Z,95563.78
2019-06-10T14:02:52.589Z,95569.44
2019-06-10T14:05:29.687Z,95574.94
2019-06-10T14:08:15.031Z,95575.78
2019-06-10T14:13:54.355Z,95565.80
2019-06-10T14:20:19.090Z,95553.02
2019-06-10T14:23:53.809Z,95543.41
2019-06-10T14:26:37.867Z,95546.17
2019-06-10T14:29:19.071Z,95550.31
2019-06-10T14:35:42.792Z,95534.56
2019-06-10T14:39:22.237Z,95528.83
2019-06-10T14:42:05.662Z,95530.38
2019-06-10T14:52:42.713Z,95531.94
2019-06-10T14:55:19.744Z,95531.56
2019-06-10T14:57:57.652Z,95518.63
2019-06-10T15:00:58.773Z,95512.48
2019-06-10T15:04:02.958Z,95508.56
2019-06-10T15:06:46.842Z,95504.61
2019-06-10T15:09:24.589Z,95512.29
2019-06-10T15:12:28.083Z,95504.95
2019-06-10T15:15:34.189Z,95500.38
2019-06-10T15:26:17.354Z,95487.59
2019-06-10T15:29:27.610Z,95488.45
2019-06-10T15:32:19.156Z,95487.43
2019-06-10T15:35:23.983Z,95469.12
2019-06-10T15:38:15.689Z,95473.83
2019-06-10T15:40:49.409Z,95471.44
2019-06-10T15:43:42.413Z,95472.63
2019-06-10T15:53:25.308Z,95472.89
2019-06-10T15:56:31.782Z,95472.91
2019-06-10T15:59:14.937Z,95467.38
2019-06-10T16:05:36.693Z,95451.63
2019-06-10T16:08:45.075Z,95451.60
2019-06-10T16:11:35.289Z,95453.34
2019-06-10T16:21:52.817Z,95459.29
2019-06-10T16:35:32.136Z,95499.48
2019-06-10T16:41:32.868Z,95495.23
2019-06-10T16:44:13.579Z,95501.12
2019-06-10T16:46:52.645Z,95513.35
2019-06-10T16:50:06.492Z,95529.73
2019-06-10T16:52:43.095Z,95539.80
2019-06-10T16:56:26.471Z,95542.09
2019-06-10T16:59:02.828Z,95536.23
2019-06-10T17:01:38.914Z,95540.97
2019-06-10T17:04:28.083Z,95536.13
2019-06-10T17:07:09.606Z,95537.50
2019-06-10T17:13:42.250Z,95542.15
2019-06-10T17:17:12.702Z,95532.75
2019-06-10T17:20:03.756Z,95523.88
2019-06-10T17:22:44.237Z,95505.34
2019-06-10T17:28:47.820Z,95495.86
2019-06-10T17:31:28.727Z,95497.20
2019-06-10T17:45:27.166Z,95485.92
2019-06-10T17:47:55.829Z,95489.85
2019-06-10T17:50:27.979Z,95477.98
2019-06-10T17:52:58.819Z,95472.72
2019-06-10T17:55:33.673Z,95478.38
2019-06-10T17:58:03.524Z,95490.15
2019-06-10T18:00:36.240Z,95496.58
2019-06-10T18:03:06.828Z,95489.36
2019-06-10T18:05:37.561Z,95509.95
2019-06-10T18:08:08.817Z,95526.13
2019-06-10T18:10:43.661Z,95541.59
2019-06-10T18:13:16.812Z,95542.90
2019-06-10T18:15:47.781Z,95547.23
2019-06-10T18:18:18.571Z,95566.27
2019-06-10T18:20:53.296Z,95596.79
2019-06-10T18:23:23.146Z,95630.45
2019-06-10T18:25:54.804Z,95654.94
2019-06-10T18:28:26.883Z,95650.63
2019-06-10T18:30:58.297Z,95607.11
2019-06-10T18:33:29.642Z,95563.56
2019-06-10T18:36:02.484Z,95560.89
2019-06-10T18:38:36.942Z,95566.33
2019-06-10T18:41:07.386Z,95574.76
2019-06-10T18:43:38.166Z,95580.80
2019-06-10T18:46:08.929Z,95566.26
2019-06-10T18:48:40.083Z,95548.69
2019-06-10T18:51:12.475Z,95561.53
2019-06-10T18:53:43.287Z,95564.55
2019-06-10T18:56:14.051Z,95531.61
2019-06-10T18:58:47.319Z,95504.13
2019-06-10T19:01:18.726Z,95476.61
2019-06-10T19:03:49.540Z,95479.41
2019-06-10T19:06:22.804Z,95500.53
2019-06-10T19:08:53.504Z,95525.81
2019-06-10T19:11:24.636Z,95543.03
2019-06-10T19:13:55.395Z,95542.84
2019-06-10T19:16:26.160Z,95549.45
2019-06-10T19:18:58.255Z,95554.24
2019-06-10T19:21:30.057Z,95550.97
2019-06-10T19:24:03.245Z,95558.83
2019-06-10T19:26:36.996Z,95560.91
2019-06-10T19:29:06.678Z,95560.92
2019-06-10T19:31:46.159Z,95573.71
2019-06-10T19:34:17.322Z,95580.48
2019-06-10T19:36:48.058Z,95574.87
2019-06-10T19:39:18.773Z,95568.26
2019-06-10T19:41:52.862Z,95552.98
2019-06-10T19:44:24.251Z,95546.62
2019-06-10T19:46:55.039Z,95526.98
2019-06-10T19:49:25.787Z,95506.46
2019-06-10T19:51:57.332Z,95499.45
2019-06-10T19:54:28.044Z,95505.34
2019-06-10T19:56:58.814Z,95521.35
2019-06-10T19:59:29.528Z,95523.14
2019-06-10T20:02:03.232Z,95525.69
2019-06-10T20:04:34.651Z,95524.17
2019-06-10T20:07:05.545Z,95507.69
2019-06-10T20:09:36.314Z,95496.45
2019-06-10T20:12:07.095Z,95493.03
2019-06-10T20:14:40.530Z,95474.23
2019-06-10T20:17:13.424Z,95474.00
2019-06-10T20:19:45.897Z,95456.88
2019-06-10T20:22:17.828Z,95455.69
2019-06-10T20:24:48.910Z,95444.41
2019-06-10T20:27:22.704Z,95426.50
2019-06-10T20:30:05.860Z,95406.63
2019-06-10T20:32:25.403Z,95387.13
2019-06-10T20:34:56.162Z,95398.59
2019-06-10T20:37:26.776Z,95415.47
2019-06-10T20:40:03.699Z,95430.36
2019-06-10T20:42:34.385Z,95446.05
2019-06-10T20:45:05.175Z,95453.48
2019-06-10T20:47:35.664Z,95458.17
2019-06-10T20:50:06.186Z,95449.02
2019-06-10T20:52:37.906Z,95451.41
2019-06-10T20:55:12.566Z,95439.28
2019-06-10T20:57:55.890Z,95441.94
2019-06-10T21:00:22.570Z,95440.19
2019-06-10T21:02:50.359Z,95439.14
2019-06-10T21:05:22.338Z,95443.79
2019-06-10T21:07:54.397Z,95448.17
2019-06-10T21:10:34.974Z,95455.33
2019-06-10T21:13:06.173Z,95465.83
2019-06-10T21:15:36.719Z,95466.15
2019-06-10T21:18:07.241Z,95464.72
2019-06-10T21:20:37.993Z,95465.91
2019-06-10T21:23:08.579Z,95462.65
2019-06-10T21:25:40.600Z,95462.33
2019-06-10T21:28:13.081Z,95472.59
2019-06-10T21:30:49.686Z,95473.55
2019-06-10T21:33:15.674Z,95484.03
2019-06-10T21:35:47.376Z,95497.11
2019-06-10T21:38:18.244Z,95499.41
2019-06-10T21:40:49.761Z,95496.95
2019-06-10T21:43:22.358Z,95498.06
2019-06-10T21:45:57.480Z,95510.87
2019-06-10T21:48:25.201Z,95520.09
2019-06-10T21:50:56.014Z,95528.80
2019-06-10T21:53:26.728Z,95523.45
2019-06-10T21:55:57.217Z,95509.20
2019-06-10T21:58:29.550Z,95513.58
2019-06-10T22:01:09.631Z,95517.56
2019-06-10T22:03:32.491Z,95516.70
2019-06-10T22:06:02.915Z,95513.19
2019-06-10T22:08:33.792Z,95499.98
2019-06-10T22:11:04.329Z,95494.57
2019-06-10T22:13:34.721Z,95493.53
2019-06-10T22:16:05.622Z,95494.64
2019-06-10T22:18:36.169Z,95491.01
2019-06-10T22:21:06.566Z,95485.36
2019-06-10T22:23:37.004Z,95478.17
2019-06-10T22:26:07.416Z,95479.28
2019-06-10T22:28:38.327Z,95472.39
2019-06-10T22:31:19.090Z,95477.08
2019-06-10T22:33:43.030Z,95472.30
2019-06-10T22:36:13.101Z,95479.95
2019-06-10T22:38:43.478Z,95478.37
2019-06-10T22:41:14.212Z,95482.81
2019-06-10T22:43:44.609Z,95472.07
2019-06-10T22:46:15.065Z,95480.66
2019-06-10T22:48:46.683Z,95484.64
2019-06-10T22:51:17.342Z,95482.66
2019-06-10T22:53:48.278Z,95484.95
2019-06-10T22:56:19.221Z,95483.84
2019-06-10T22:58:49.854Z,95478.36
2019-06-10T23:01:31.660Z,95467.05
2019-06-10T23:03:56.259Z,95457.21
2019-06-10T23:06:26.829Z,95456.55
2019-06-10T23:08:58.116Z,95450.03
2019-06-10T23:11:48.882Z,95450.11
2019-06-10T23:14:19.328Z,95445.97
2019-06-10T23:16:51.442Z,95442.55
2019-06-10T23:19:23.401Z,95446.30
2019-06-10T23:21:55.686Z,95446.80
2019-06-10T23:24:26.654Z,95448.54
2019-06-10T23:26:57.997Z,95435.03
2019-06-10T23:29:28.608Z,95435.11
2019-06-10T23:32:05.938Z,95430.67
2019-06-10T23:34:33.053Z,95422.94
2019-06-10T23:37:03.482Z,95429.56
2019-06-10T23:39:35.455Z,95426.94
2019-06-10T23:42:05.899Z,95423.05
2019-06-10T23:44:36.350Z,95434.25
2019-06-10T23:47:06.798Z,95440.66
2019-06-10T23:49:37.259Z,95442.14
2019-06-10T23:52:08.097Z,95445.64
2019-06-10T23:54:38.534Z,95456.86
2019-06-10T23:57:08.965Z,95455.64
2019-06-10T23:59:39.414Z,95449.38
